sensor_id;sensor_type;location;lat;lon;timestamp;P1;durP1;ratioP1;P2;durP2;ratioP2
18172;SDS011;9211;48.818;9.312;2022-09-01T00:01:36;13.18;;;9.48;;
18172;SDS011;9211;48.818;9.312;2022-09-01T00:04:07;13.57;;;8.73;;
18172;SDS011;9211;48.818;9.312;2022-09-01T00:06:37;14.18;;;9.50;;
18172;SDS011;9211;48.818;9.312;2022-09-01T00:09:05;14.65;;;9.18;;
18172;SDS011;9211;48.818;9.312;2022-09-01T00:11:34;14.93;;;9.35;;
18172;SDS011;9211;48.818;9.312;2022-09-01T00:14:05;15.50;;;9.93;;
18172;SDS011;9211;48.818;9.312;2022-09-01T00:16:33;12.45;;;9.07;;
18172;SDS011;9211;48.818;9.312;2022-09-01T00:19:00;15.30;;;9.23;;
18172;SDS011;9211;48.818;9.312;2022-09-01T00:21:33;14.00;;;8.77;;
18172;SDS011;9211;48.818;9.312;2022-09-01T00:24:01;12.18;;;8.43;;
18172;SDS011;9211;48.818;9.312;2022-09-01T00:26:29;15.55;;;9.77;;
18172;SDS011;9211;48.818;9.312;2022-09-01T00:28:57;14.05;;;8.85;;
18172;SDS011;9211;48.818;9.312;2022-09-01T00:31:24;15.00;;;9.77;;
18172;SDS011;9211;48.818;9.312;2022-09-01T00:33:52;14.65;;;9.20;;
18172;SDS011;9211;48.818;9.312;2022-09-01T00:36:19;13.25;;;9.63;;
18172;SDS011;9211;48.818;9.312;2022-09-01T00:38:49;14.38;;;9.77;;
18172;SDS011;9211;48.818;9.312;2022-09-01T00:41:16;12.20;;;9.13;;
18172;SDS011;9211;48.818;9.312;2022-09-01T00:43:45;13.48;;;9.02;;
18172;SDS011;9211;48.818;9.312;2022-09-01T00:46:14;13.65;;;9.77;;
18172;SDS011;9211;48.818;9.312;2022-09-01T00:48:43;13.18;;;9.68;;
18172;SDS011;9211;48.818;9.312;2022-09-01T00:51:13;14.25;;;9.48;;
18172;SDS011;9211;48.818;9.312;2022-09-01T00:53:41;13.95;;;9.45;;
18172;SDS011;9211;48.818;9.312;2022-09-01T00:56:11;15.35;;;9.85;;
18172;SDS011;9211;48.818;9.312;2022-09-01T00:58:39;14.25;;;9.77;;
18172;SDS011;9211;48.818;9.312;2022-09-01T01:01:07;14.27;;;9.70;;
18172;SDS011;9211;48.818;9.312;2022-09-01T01:03:35;14.20;;;9.70;;
18172;SDS011;9211;48.818;9.312;2022-09-01T01:06:04;14.80;;;9.10;;
18172;SDS011;9211;48.818;9.312;2022-09-01T01:08:35;12.85;;;9.25;;
18172;SDS011;9211;48.818;9.312;2022-09-01T01:11:05;14.03;;;9.53;;
18172;SDS011;9211;48.818;9.312;2022-09-01T01:13:46;15.80;;;8.98;;
18172;SDS011;9211;48.818;9.312;2022-09-01T01:16:16;15.10;;;9.15;;
18172;SDS011;9211;48.818;9.312;2022-09-01T01:18:44;13.30;;;9.45;;
18172;SDS011;9211;48.818;9.312;2022-09-01T01:21:14;15.25;;;9.77;;
18172;SDS011;9211;48.818;9.312;2022-09-01T01:24:21;12.45;;;9.60;;
18172;SDS011;9211;48.818;9.312;2022-09-01T01:26:49;13.67;;;9.43;;
18172;SDS011;9211;48.818;9.312;2022-09-01T01:29:17;14.20;;;9.30;;
18172;SDS011;9211;48.818;9.312;2022-09-01T01:31:46;14.60;;;9.68;;
18172;SDS011;9211;48.818;9.312;2022-09-01T01:34:15;15.68;;;10.20;;
18172;SDS011;9211;48.818;9.312;2022-09-01T01:36:44;13.93;;;9.98;;
18172;SDS011;9211;48.818;9.312;2022-09-01T01:39:14;14.25;;;9.45;;
18172;SDS011;9211;48.818;9.312;2022-09-01T01:41:44;14.50;;;9.00;;
18172;SDS011;9211;48.818;9.312;2022-09-01T01:44:14;14.50;;;8.80;;
18172;SDS011;9211;48.818;9.312;2022-09-01T01:46:44;14.05;;;8.80;;
18172;SDS011;9211;48.818;9.312;2022-09-01T01:49:12;14.05;;;9.30;;
18172;SDS011;9211;48.818;9.312;2022-09-01T01:51:43;12.82;;;8.90;;
18172;SDS011;9211;48.818;9.312;2022-09-01T01:54:11;13.77;;;9.17;;
18172;SDS011;9211;48.818;9.312;2022-09-01T01:56:40;13.80;;;9.25;;
18172;SDS011;9211;48.818;9.312;2022-09-01T01:59:08;14.88;;;9.52;;
18172;SDS011;9211;48.818;9.312;2022-09-01T02:01:41;14.18;;;9.70;;
18172;SDS011;9211;48.818;9.312;2022-09-01T02:04:13;13.45;;;9.85;;
18172;SDS011;9211;48.818;9.312;2022-09-01T02:06:42;16.35;;;10.35;;
18172;SDS011;9211;48.818;9.312;2022-09-01T02:09:12;14.18;;;10.20;;
18172;SDS011;9211;48.818;9.312;2022-09-01T02:11:40;16.80;;;10.85;;
18172;SDS011;9211;48.818;9.312;2022-09-01T02:14:10;16.65;;;10.30;;
18172;SDS011;9211;48.818;9.312;2022-09-01T02:16:38;16.95;;;10.32;;
18172;SDS011;9211;48.818;9.312;2022-09-01T02:19:06;16.40;;;10.10;;
18172;SDS011;9211;48.818;9.312;2022-09-01T02:21:37;14.68;;;10.40;;
18172;SDS011;9211;48.818;9.312;2022-09-01T02:24:17;16.83;;;11.00;;
18172;SDS011;9211;48.818;9.312;2022-09-01T02:26:45;16.80;;;10.82;;
18172;SDS011;9211;48.818;9.312;2022-09-01T02:29:17;17.97;;;10.87;;
18172;SDS011;9211;48.818;9.312;2022-09-01T02:31:47;16.88;;;10.30;;
18172;SDS011;9211;48.818;9.312;2022-09-01T02:34:16;17.15;;;11.00;;
18172;SDS011;9211;48.818;9.312;2022-09-01T02:36:46;17.30;;;11.02;;
18172;SDS011;9211;48.818;9.312;2022-09-01T02:39:20;16.48;;;10.60;;
18172;SDS011;9211;48.818;9.312;2022-09-01T02:41:49;18.58;;;11.13;;
18172;SDS011;9211;48.818;9.312;2022-09-01T02:44:23;17.77;;;11.13;;
18172;SDS011;9211;48.818;9.312;2022-09-01T02:46:53;17.83;;;10.70;;
18172;SDS011;9211;48.818;9.312;2022-09-01T02:49:22;15.82;;;10.88;;
18172;SDS011;9211;48.818;9.312;2022-09-01T02:51:53;18.52;;;10.95;;
18172;SDS011;9211;48.818;9.312;2022-09-01T02:54:24;19.63;;;10.85;;
18172;SDS011;9211;48.818;9.312;2022-09-01T02:56:52;14.88;;;10.70;;
18172;SDS011;9211;48.818;9.312;2022-09-01T02:59:22;16.73;;;11.00;;
18172;SDS011;9211;48.818;9.312;2022-09-01T03:01:56;18.30;;;11.07;;
18172;SDS011;9211;48.818;9.312;2022-09-01T03:04:24;15.43;;;10.57;;
18172;SDS011;9211;48.818;9.312;2022-09-01T03:06:51;18.37;;;11.00;;
18172;SDS011;9211;48.818;9.312;2022-09-01T03:09:19;16.77;;;11.48;;
18172;SDS011;9211;48.818;9.312;2022-09-01T03:11:47;16.07;;;11.33;;
18172;SDS011;9211;48.818;9.312;2022-09-01T03:14:16;17.88;;;10.93;;
18172;SDS011;9211;48.818;9.312;2022-09-01T03:16:44;16.75;;;11.15;;
18172;SDS011;9211;48.818;9.312;2022-09-01T03:19:12;17.27;;;11.38;;
18172;SDS011;9211;48.818;9.312;2022-09-01T03:21:41;16.88;;;10.75;;
18172;SDS011;9211;48.818;9.312;2022-09-01T03:24:11;15.57;;;10.65;;
18172;SDS011;9211;48.818;9.312;2022-09-01T03:26:42;16.98;;;10.63;;
18172;SDS011;9211;48.818;9.312;2022-09-01T03:29:11;15.80;;;10.38;;
18172;SDS011;9211;48.818;9.312;2022-09-01T03:31:39;17.90;;;10.30;;
18172;SDS011;9211;48.818;9.312;2022-09-01T03:34:08;18.45;;;10.23;;
18172;SDS011;9211;48.818;9.312;2022-09-01T03:36:42;16.92;;;10.40;;
18172;SDS011;9211;48.818;9.312;2022-09-01T03:39:16;15.90;;;10.47;;
18172;SDS011;9211;48.818;9.312;2022-09-01T03:41:44;16.08;;;10.30;;
18172;SDS011;9211;48.818;9.312;2022-09-01T03:44:11;14.98;;;9.98;;
18172;SDS011;9211;48.818;9.312;2022-09-01T03:46:42;15.82;;;10.55;;
18172;SDS011;9211;48.818;9.312;2022-09-01T03:49:11;15.67;;;10.60;;
18172;SDS011;9211;48.818;9.312;2022-09-01T03:51:41;15.27;;;10.98;;
18172;SDS011;9211;48.818;9.312;2022-09-01T03:54:09;16.17;;;10.85;;
18172;SDS011;9211;48.818;9.312;2022-09-01T03:56:37;16.23;;;10.20;;
18172;SDS011;9211;48.818;9.312;2022-09-01T03:59:11;18.55;;;10.75;;
18172;SDS011;9211;48.818;9.312;2022-09-01T04:01:42;14.63;;;10.18;;
18172;SDS011;9211;48.818;9.312;2022-09-01T04:04:11;16.02;;;10.45;;
18172;SDS011;9211;48.818;9.312;2022-09-01T04:06:40;15.65;;;10.40;;
18172;SDS011;9211;48.818;9.312;2022-09-01T04:09:08;14.82;;;10.00;;
18172;SDS011;9211;48.818;9.312;2022-09-01T04:11:37;16.33;;;10.50;;
18172;SDS011;9211;48.818;9.312;2022-09-01T04:14:04;18.25;;;10.80;;
18172;SDS011;9211;48.818;9.312;2022-09-01T04:16:35;16.25;;;10.82;;
18172;SDS011;9211;48.818;9.312;2022-09-01T04:19:24;16.77;;;10.77;;
18172;SDS011;9211;48.818;9.312;2022-09-01T04:21:55;15.93;;;10.80;;
18172;SDS011;9211;48.818;9.312;2022-09-01T04:24:26;15.13;;;10.82;;
18172;SDS011;9211;48.818;9.312;2022-09-01T04:26:56;17.02;;;11.50;;
18172;SDS011;9211;48.818;9.312;2022-09-01T04:29:26;18.13;;;11.40;;
18172;SDS011;9211;48.818;9.312;2022-09-01T04:31:57;17.17;;;11.23;;
18172;SDS011;9211;48.818;9.312;2022-09-01T04:34:31;15.45;;;11.20;;
18172;SDS011;9211;48.818;9.312;2022-09-01T04:37:02;15.48;;;11.07;;
18172;SDS011;9211;48.818;9.312;2022-09-01T04:39:33;18.65;;;11.30;;
18172;SDS011;9211;48.818;9.312;2022-09-01T04:42:03;16.42;;;11.00;;
18172;SDS011;9211;48.818;9.312;2022-09-01T04:44:34;17.42;;;10.65;;
18172;SDS011;9211;48.818;9.312;2022-09-01T04:47:02;16.08;;;11.07;;
18172;SDS011;9211;48.818;9.312;2022-09-01T04:49:32;15.65;;;10.82;;
18172;SDS011;9211;48.818;9.312;2022-09-01T04:52:00;16.40;;;11.10;;
18172;SDS011;9211;48.818;9.312;2022-09-01T04:54:29;16.23;;;10.48;;
18172;SDS011;9211;48.818;9.312;2022-09-01T04:56:57;15.50;;;10.70;;
18172;SDS011;9211;48.818;9.312;2022-09-01T04:59:27;19.55;;;11.02;;
18172;SDS011;9211;48.818;9.312;2022-09-01T05:01:59;15.65;;;10.80;;
18172;SDS011;9211;48.818;9.312;2022-09-01T05:04:27;16.33;;;10.77;;
18172;SDS011;9211;48.818;9.312;2022-09-01T05:07:00;15.60;;;11.05;;
18172;SDS011;9211;48.818;9.312;2022-09-01T05:09:34;15.73;;;10.85;;
18172;SDS011;9211;48.818;9.312;2022-09-01T05:12:21;16.27;;;11.03;;
18172;SDS011;9211;48.818;9.312;2022-09-01T05:14:48;20.05;;;11.20;;
18172;SDS011;9211;48.818;9.312;2022-09-01T05:17:17;20.42;;;12.07;;
18172;SDS011;9211;48.818;9.312;2022-09-01T05:19:46;18.25;;;11.18;;
18172;SDS011;9211;48.818;9.312;2022-09-01T05:22:16;17.10;;;11.32;;
18172;SDS011;9211;48.818;9.312;2022-09-01T05:24:53;16.65;;;11.15;;
18172;SDS011;9211;48.818;9.312;2022-09-01T05:27:20;16.88;;;10.88;;
18172;SDS011;9211;48.818;9.312;2022-09-01T05:29:48;17.27;;;10.93;;
18172;SDS011;9211;48.818;9.312;2022-09-01T05:32:15;16.00;;;10.57;;
18172;SDS011;9211;48.818;9.312;2022-09-01T05:34:42;17.55;;;11.90;;
18172;SDS011;9211;48.818;9.312;2022-09-01T05:37:10;17.10;;;11.10;;
18172;SDS011;9211;48.818;9.312;2022-09-01T05:39:41;18.98;;;11.65;;
18172;SDS011;9211;48.818;9.312;2022-09-01T05:42:09;19.37;;;12.00;;
18172;SDS011;9211;48.818;9.312;2022-09-01T05:44:37;18.60;;;11.27;;
18172;SDS011;9211;48.818;9.312;2022-09-01T05:47:08;14.43;;;10.95;;
18172;SDS011;9211;48.818;9.312;2022-09-01T05:49:36;15.37;;;10.70;;
18172;SDS011;9211;48.818;9.312;2022-09-01T05:52:05;17.27;;;11.70;;
18172;SDS011;9211;48.818;9.312;2022-09-01T05:54:34;17.13;;;11.55;;
18172;SDS011;9211;48.818;9.312;2022-09-01T05:57:03;18.38;;;12.10;;
18172;SDS011;9211;48.818;9.312;2022-09-01T05:59:31;16.90;;;12.18;;
18172;SDS011;9211;48.818;9.312;2022-09-01T06:02:12;21.15;;;11.90;;
18172;SDS011;9211;48.818;9.312;2022-09-01T06:04:40;16.85;;;11.38;;
18172;SDS011;9211;48.818;9.312;2022-09-01T06:07:16;17.83;;;11.90;;
18172;SDS011;9211;48.818;9.312;2022-09-01T06:09:48;19.55;;;12.68;;
18172;SDS011;9211;48.818;9.312;2022-09-01T06:12:21;19.93;;;13.43;;
18172;SDS011;9211;48.818;9.312;2022-09-01T06:14:49;21.30;;;12.95;;
18172;SDS011;9211;48.818;9.312;2022-09-01T06:17:19;19.73;;;12.75;;
18172;SDS011;9211;48.818;9.312;2022-09-01T06:19:49;20.33;;;13.23;;
18172;SDS011;9211;48.818;9.312;2022-09-01T06:22:16;20.20;;;13.30;;
18172;SDS011;9211;48.818;9.312;2022-09-01T06:24:45;19.50;;;13.15;;
18172;SDS011;9211;48.818;9.312;2022-09-01T06:27:14;19.83;;;13.32;;
18172;SDS011;9211;48.818;9.312;2022-09-01T06:29:46;22.90;;;14.07;;
18172;SDS011;9211;48.818;9.312;2022-09-01T06:32:19;23.35;;;14.98;;
18172;SDS011;9211;48.818;9.312;2022-09-01T06:34:46;24.33;;;14.90;;
18172;SDS011;9211;48.818;9.312;2022-09-01T06:37:15;25.45;;;16.60;;
18172;SDS011;9211;48.818;9.312;2022-09-01T06:39:48;25.23;;;15.90;;
18172;SDS011;9211;48.818;9.312;2022-09-01T06:42:16;23.23;;;14.53;;
18172;SDS011;9211;48.818;9.312;2022-09-01T06:44:53;24.00;;;14.50;;
18172;SDS011;9211;48.818;9.312;2022-09-01T06:47:20;21.77;;;14.68;;
18172;SDS011;9211;48.818;9.312;2022-09-01T06:49:48;21.88;;;13.48;;
18172;SDS011;9211;48.818;9.312;2022-09-01T06:52:18;22.73;;;14.03;;
18172;SDS011;9211;48.818;9.312;2022-09-01T06:54:49;24.50;;;15.27;;
18172;SDS011;9211;48.818;9.312;2022-09-01T06:57:18;21.77;;;14.77;;
18172;SDS011;9211;48.818;9.312;2022-09-01T06:59:48;22.50;;;14.75;;
18172;SDS011;9211;48.818;9.312;2022-09-01T07:02:16;22.83;;;14.27;;
18172;SDS011;9211;48.818;9.312;2022-09-01T07:05:23;19.00;;;12.93;;
18172;SDS011;9211;48.818;9.312;2022-09-01T07:07:51;21.85;;;14.40;;
18172;SDS011;9211;48.818;9.312;2022-09-01T07:10:38;20.10;;;13.50;;
18172;SDS011;9211;48.818;9.312;2022-09-01T07:13:19;20.15;;;13.07;;
18172;SDS011;9211;48.818;9.312;2022-09-01T07:15:50;20.00;;;13.25;;
18172;SDS011;9211;48.818;9.312;2022-09-01T07:18:23;20.08;;;14.13;;
18172;SDS011;9211;48.818;9.312;2022-09-01T07:20:51;21.15;;;14.65;;
18172;SDS011;9211;48.818;9.312;2022-09-01T07:23:20;20.45;;;12.60;;
18172;SDS011;9211;48.818;9.312;2022-09-01T07:25:48;18.50;;;12.43;;
18172;SDS011;9211;48.818;9.312;2022-09-01T07:28:28;18.38;;;12.27;;
18172;SDS011;9211;48.818;9.312;2022-09-01T07:30:57;16.10;;;11.05;;
18172;SDS011;9211;48.818;9.312;2022-09-01T07:33:28;15.43;;;10.85;;
18172;SDS011;9211;48.818;9.312;2022-09-01T07:35:57;17.95;;;11.50;;
18172;SDS011;9211;48.818;9.312;2022-09-01T07:38:24;14.60;;;10.43;;
18172;SDS011;9211;48.818;9.312;2022-09-01T07:40:52;18.75;;;12.18;;
18172;SDS011;9211;48.818;9.312;2022-09-01T07:44:00;17.38;;;11.18;;
18172;SDS011;9211;48.818;9.312;2022-09-01T07:46:55;17.10;;;10.88;;
18172;SDS011;9211;48.818;9.312;2022-09-01T07:49:22;15.98;;;10.18;;
18172;SDS011;9211;48.818;9.312;2022-09-01T07:51:50;13.95;;;9.82;;
18172;SDS011;9211;48.818;9.312;2022-09-01T07:54:18;17.15;;;9.52;;
18172;SDS011;9211;48.818;9.312;2022-09-01T07:56:50;13.02;;;9.18;;
18172;SDS011;9211;48.818;9.312;2022-09-01T07:59:21;14.20;;;9.70;;
18172;SDS011;9211;48.818;9.312;2022-09-01T08:01:56;13.95;;;9.65;;
18172;SDS011;9211;48.818;9.312;2022-09-01T08:04:23;13.93;;;10.10;;
18172;SDS011;9211;48.818;9.312;2022-09-01T08:06:54;16.10;;;10.57;;
18172;SDS011;9211;48.818;9.312;2022-09-01T08:09:42;12.98;;;9.25;;
18172;SDS011;9211;48.818;9.312;2022-09-01T08:12:10;13.30;;;8.50;;
18172;SDS011;9211;48.818;9.312;2022-09-01T08:14:49;13.30;;;9.32;;
18172;SDS011;9211;48.818;9.312;2022-09-01T08:17:17;12.20;;;8.68;;
18172;SDS011;9211;48.818;9.312;2022-09-01T08:19:45;12.27;;;8.40;;
18172;SDS011;9211;48.818;9.312;2022-09-01T08:22:19;11.38;;;8.07;;
18172;SDS011;9211;48.818;9.312;2022-09-01T08:24:55;11.90;;;7.85;;
18172;SDS011;9211;48.818;9.312;2022-09-01T08:27:22;11.77;;;8.40;;
18172;SDS011;9211;48.818;9.312;2022-09-01T08:29:51;11.30;;;8.18;;
18172;SDS011;9211;48.818;9.312;2022-09-01T08:32:18;11.07;;;8.17;;
18172;SDS011;9211;48.818;9.312;2022-09-01T08:34:46;10.87;;;7.80;;
18172;SDS011;9211;48.818;9.312;2022-09-01T08:37:13;10.88;;;7.68;;
18172;SDS011;9211;48.818;9.312;2022-09-01T08:39:41;10.88;;;7.70;;
18172;SDS011;9211;48.818;9.312;2022-09-01T08:42:11;9.33;;;7.07;;
18172;SDS011;9211;48.818;9.312;2022-09-01T08:44:45;9.32;;;6.50;;
18172;SDS011;9211;48.818;9.312;2022-09-01T08:47:20;9.95;;;6.90;;
18172;SDS011;9211;48.818;9.312;2022-09-01T08:49:47;8.13;;;5.78;;
18172;SDS011;9211;48.818;9.312;2022-09-01T08:52:23;6.88;;;5.10;;
18172;SDS011;9211;48.818;9.312;2022-09-01T08:54:57;7.10;;;5.23;;
18172;SDS011;9211;48.818;9.312;2022-09-01T08:57:31;6.68;;;5.00;;
18172;SDS011;9211;48.818;9.312;2022-09-01T09:00:19;6.93;;;5.40;;
18172;SDS011;9211;48.818;9.312;2022-09-01T09:02:55;7.78;;;5.20;;
18172;SDS011;9211;48.818;9.312;2022-09-01T09:05:32;6.90;;;5.25;;
18172;SDS011;9211;48.818;9.312;2022-09-01T09:08:23;7.65;;;5.30;;
18172;SDS011;9211;48.818;9.312;2022-09-01T09:11:05;8.07;;;5.45;;
18172;SDS011;9211;48.818;9.312;2022-09-01T09:13:41;7.43;;;5.27;;
18172;SDS011;9211;48.818;9.312;2022-09-01T09:16:20;7.25;;;5.20;;
18172;SDS011;9211;48.818;9.312;2022-09-01T09:18:54;7.45;;;5.80;;
18172;SDS011;9211;48.818;9.312;2022-09-01T09:21:27;7.25;;;5.05;;
18172;SDS011;9211;48.818;9.312;2022-09-01T09:23:59;6.35;;;5.18;;
18172;SDS011;9211;48.818;9.312;2022-09-01T09:26:32;6.85;;;5.45;;
18172;SDS011;9211;48.818;9.312;2022-09-01T09:28:59;5.88;;;4.85;;
18172;SDS011;9211;48.818;9.312;2022-09-01T09:31:30;6.90;;;4.93;;
18172;SDS011;9211;48.818;9.312;2022-09-01T09:34:00;6.85;;;4.65;;
18172;SDS011;9211;48.818;9.312;2022-09-01T09:36:29;5.80;;;4.53;;
18172;SDS011;9211;48.818;9.312;2022-09-01T09:39:03;6.55;;;4.50;;
18172;SDS011;9211;48.818;9.312;2022-09-01T09:41:32;6.22;;;4.00;;
18172;SDS011;9211;48.818;9.312;2022-09-01T09:44:00;5.00;;;4.10;;
18172;SDS011;9211;48.818;9.312;2022-09-01T09:46:33;4.55;;;3.90;;
18172;SDS011;9211;48.818;9.312;2022-09-01T09:49:07;5.70;;;4.53;;
18172;SDS011;9211;48.818;9.312;2022-09-01T09:51:37;5.95;;;4.45;;
18172;SDS011;9211;48.818;9.312;2022-09-01T09:54:17;4.72;;;3.88;;
18172;SDS011;9211;48.818;9.312;2022-09-01T09:56:46;6.60;;;4.32;;
18172;SDS011;9211;48.818;9.312;2022-09-01T09:59:27;8.75;;;4.18;;
18172;SDS011;9211;48.818;9.312;2022-09-01T10:01:57;5.20;;;4.10;;
18172;SDS011;9211;48.818;9.312;2022-09-01T10:04:33;5.53;;;3.90;;
18172;SDS011;9211;48.818;9.312;2022-09-01T10:07:15;5.05;;;4.05;;
18172;SDS011;9211;48.818;9.312;2022-09-01T10:09:54;5.18;;;4.10;;
18172;SDS011;9211;48.818;9.312;2022-09-01T10:12:23;5.10;;;4.25;;
18172;SDS011;9211;48.818;9.312;2022-09-01T10:14:52;5.30;;;3.97;;
18172;SDS011;9211;48.818;9.312;2022-09-01T10:17:22;4.88;;;3.72;;
18172;SDS011;9211;48.818;9.312;2022-09-01T10:19:56;4.70;;;3.80;;
18172;SDS011;9211;48.818;9.312;2022-09-01T10:22:28;5.57;;;3.97;;
18172;SDS011;9211;48.818;9.312;2022-09-01T10:24:57;4.78;;;3.63;;
18172;SDS011;9211;48.818;9.312;2022-09-01T10:27:26;4.93;;;3.78;;
18172;SDS011;9211;48.818;9.312;2022-09-01T10:29:56;5.05;;;3.88;;
18172;SDS011;9211;48.818;9.312;2022-09-01T10:32:33;4.43;;;3.60;;
18172;SDS011;9211;48.818;9.312;2022-09-01T10:35:06;4.85;;;3.70;;
18172;SDS011;9211;48.818;9.312;2022-09-01T10:37:36;4.97;;;3.65;;
18172;SDS011;9211;48.818;9.312;2022-09-01T10:40:18;4.75;;;3.75;;
18172;SDS011;9211;48.818;9.312;2022-09-01T10:46:07;5.65;;;3.55;;
18172;SDS011;9211;48.818;9.312;2022-09-01T10:49:12;5.15;;;3.60;;
18172;SDS011;9211;48.818;9.312;2022-09-01T10:52:08;4.07;;;3.38;;
18172;SDS011;9211;48.818;9.312;2022-09-01T10:54:52;4.87;;;3.70;;
18172;SDS011;9211;48.818;9.312;2022-09-01T10:57:29;4.45;;;3.70;;
18172;SDS011;9211;48.818;9.312;2022-09-01T11:03:32;4.55;;;3.50;;
18172;SDS011;9211;48.818;9.312;2022-09-01T11:09:29;5.00;;;3.50;;
18172;SDS011;9211;48.818;9.312;2022-09-01T11:12:02;5.28;;;3.30;;
18172;SDS011;9211;48.818;9.312;2022-09-01T11:14:50;4.95;;;3.47;;
18172;SDS011;9211;48.818;9.312;2022-09-01T11:17:20;4.32;;;3.22;;
18172;SDS011;9211;48.818;9.312;2022-09-01T11:19:56;5.85;;;3.70;;
18172;SDS011;9211;48.818;9.312;2022-09-01T11:22:33;3.42;;;3.03;;
18172;SDS011;9211;48.818;9.312;2022-09-01T11:25:29;4.25;;;3.13;;
18172;SDS011;9211;48.818;9.312;2022-09-01T11:28:05;3.60;;;3.00;;
18172;SDS011;9211;48.818;9.312;2022-09-01T11:30:36;4.80;;;3.55;;
18172;SDS011;9211;48.818;9.312;2022-09-01T11:33:37;4.22;;;3.35;;
18172;SDS011;9211;48.818;9.312;2022-09-01T11:36:15;3.80;;;3.30;;
18172;SDS011;9211;48.818;9.312;2022-09-01T11:38:53;4.43;;;3.45;;
18172;SDS011;9211;48.818;9.312;2022-09-01T11:41:26;4.95;;;3.33;;
18172;SDS011;9211;48.818;9.312;2022-09-01T11:43:58;4.55;;;3.50;;
18172;SDS011;9211;48.818;9.312;2022-09-01T11:46:28;3.90;;;3.30;;
18172;SDS011;9211;48.818;9.312;2022-09-01T11:48:59;4.15;;;3.20;;
18172;SDS011;9211;48.818;9.312;2022-09-01T11:51:36;4.90;;;3.50;;
18172;SDS011;9211;48.818;9.312;2022-09-01T11:54:08;4.03;;;3.15;;
18172;SDS011;9211;48.818;9.312;2022-09-01T11:56:37;3.97;;;3.10;;
18172;SDS011;9211;48.818;9.312;2022-09-01T11:59:05;3.72;;;2.88;;
18172;SDS011;9211;48.818;9.312;2022-09-01T12:01:33;4.20;;;2.92;;
18172;SDS011;9211;48.818;9.312;2022-09-01T12:04:17;3.92;;;3.13;;
18172;SDS011;9211;48.818;9.312;2022-09-01T12:06:50;4.75;;;3.10;;
18172;SDS011;9211;48.818;9.312;2022-09-01T12:09:19;4.30;;;2.90;;
18172;SDS011;9211;48.818;9.312;2022-09-01T12:11:48;3.58;;;2.90;;
18172;SDS011;9211;48.818;9.312;2022-09-01T12:14:20;3.75;;;3.00;;
18172;SDS011;9211;48.818;9.312;2022-09-01T12:16:55;3.10;;;2.78;;
18172;SDS011;9211;48.818;9.312;2022-09-01T12:19:24;3.00;;;2.60;;
18172;SDS011;9211;48.818;9.312;2022-09-01T12:21:55;2.83;;;2.40;;
18172;SDS011;9211;48.818;9.312;2022-09-01T12:24:25;3.15;;;2.50;;
18172;SDS011;9211;48.818;9.312;2022-09-01T12:26:55;2.83;;;2.45;;
18172;SDS011;9211;48.818;9.312;2022-09-01T12:29:23;3.35;;;2.72;;
18172;SDS011;9211;48.818;9.312;2022-09-01T12:31:51;3.90;;;2.80;;
18172;SDS011;9211;48.818;9.312;2022-09-01T12:34:24;3.50;;;2.90;;
18172;SDS011;9211;48.818;9.312;2022-09-01T12:37:04;3.42;;;2.72;;
18172;SDS011;9211;48.818;9.312;2022-09-01T12:39:37;3.20;;;2.72;;
18172;SDS011;9211;48.818;9.312;2022-09-01T12:42:08;3.08;;;2.63;;
18172;SDS011;9211;48.818;9.312;2022-09-01T12:44:43;3.20;;;2.70;;
18172;SDS011;9211;48.818;9.312;2022-09-01T12:53:16;4.37;;;2.90;;
18172;SDS011;9211;48.818;9.312;2022-09-01T12:55:55;3.80;;;3.00;;
18172;SDS011;9211;48.818;9.312;2022-09-01T12:58:39;3.15;;;2.80;;
18172;SDS011;9211;48.818;9.312;2022-09-01T13:01:07;3.78;;;3.00;;
18172;SDS011;9211;48.818;9.312;2022-09-01T13:06:38;3.75;;;3.17;;
18172;SDS011;9211;48.818;9.312;2022-09-01T13:09:06;3.20;;;2.90;;
18172;SDS011;9211;48.818;9.312;2022-09-01T13:11:33;3.30;;;2.70;;
18172;SDS011;9211;48.818;9.312;2022-09-01T13:14:02;4.22;;;3.13;;
18172;SDS011;9211;48.818;9.312;2022-09-01T13:16:29;3.20;;;2.80;;
18172;SDS011;9211;48.818;9.312;2022-09-01T13:18:56;3.87;;;3.10;;
18172;SDS011;9211;48.818;9.312;2022-09-01T13:21:23;4.13;;;2.75;;
18172;SDS011;9211;48.818;9.312;2022-09-01T13:23:51;3.42;;;2.72;;
18172;SDS011;9211;48.818;9.312;2022-09-01T13:26:18;3.73;;;2.90;;
18172;SDS011;9211;48.818;9.312;2022-09-01T13:28:45;3.47;;;2.70;;
18172;SDS011;9211;48.818;9.312;2022-09-01T13:31:14;3.83;;;2.58;;
18172;SDS011;9211;48.818;9.312;2022-09-01T13:33:41;3.53;;;2.50;;
18172;SDS011;9211;48.818;9.312;2022-09-01T13:36:08;3.25;;;2.55;;
18172;SDS011;9211;48.818;9.312;2022-09-01T13:38:35;3.67;;;2.65;;
18172;SDS011;9211;48.818;9.312;2022-09-01T13:41:03;2.95;;;2.38;;
18172;SDS011;9211;48.818;9.312;2022-09-01T13:43:31;5.05;;;3.00;;
18172;SDS011;9211;48.818;9.312;2022-09-01T13:46:00;3.17;;;2.60;;
18172;SDS011;9211;48.818;9.312;2022-09-01T13:48:28;2.80;;;2.50;;
18172;SDS011;9211;48.818;9.312;2022-09-01T13:50:58;4.35;;;2.50;;
18172;SDS011;9211;48.818;9.312;2022-09-01T13:53:25;3.22;;;2.70;;
18172;SDS011;9211;48.818;9.312;2022-09-01T13:55:52;4.80;;;2.63;;
18172;SDS011;9211;48.818;9.312;2022-09-01T13:58:19;10.27;;;7.65;;
18172;SDS011;9211;48.818;9.312;2022-09-01T14:00:46;8.75;;;5.78;;
18172;SDS011;9211;48.818;9.312;2022-09-01T14:03:15;9.07;;;5.35;;
18172;SDS011;9211;48.818;9.312;2022-09-01T14:05:48;4.80;;;2.70;;
18172;SDS011;9211;48.818;9.312;2022-09-01T14:08:16;3.22;;;2.92;;
18172;SDS011;9211;48.818;9.312;2022-09-01T14:10:48;4.55;;;2.90;;
18172;SDS011;9211;48.818;9.312;2022-09-01T14:13:17;3.60;;;2.50;;
18172;SDS011;9211;48.818;9.312;2022-09-01T14:15:45;3.53;;;2.70;;
18172;SDS011;9211;48.818;9.312;2022-09-01T14:18:13;3.05;;;2.33;;
18172;SDS011;9211;48.818;9.312;2022-09-01T14:20:41;3.22;;;2.50;;
18172;SDS011;9211;48.818;9.312;2022-09-01T14:23:13;3.40;;;2.53;;
18172;SDS011;9211;48.818;9.312;2022-09-01T14:25:41;3.17;;;2.42;;
18172;SDS011;9211;48.818;9.312;2022-09-01T14:28:09;3.20;;;2.70;;
18172;SDS011;9211;48.818;9.312;2022-09-01T14:30:38;2.92;;;2.53;;
18172;SDS011;9211;48.818;9.312;2022-09-01T14:33:06;3.35;;;2.60;;
18172;SDS011;9211;48.818;9.312;2022-09-01T14:35:35;2.72;;;2.30;;
18172;SDS011;9211;48.818;9.312;2022-09-01T14:38:04;3.00;;;2.45;;
18172;SDS011;9211;48.818;9.312;2022-09-01T14:40:34;3.28;;;2.30;;
18172;SDS011;9211;48.818;9.312;2022-09-01T14:43:02;2.88;;;2.00;;
18172;SDS011;9211;48.818;9.312;2022-09-01T14:45:30;2.92;;;2.10;;
18172;SDS011;9211;48.818;9.312;2022-09-01T14:47:58;3.22;;;2.20;;
18172;SDS011;9211;48.818;9.312;2022-09-01T14:50:27;2.83;;;2.10;;
18172;SDS011;9211;48.818;9.312;2022-09-01T14:52:57;3.17;;;1.98;;
18172;SDS011;9211;48.818;9.312;2022-09-01T14:55:26;2.30;;;1.98;;
18172;SDS011;9211;48.818;9.312;2022-09-01T14:57:55;3.20;;;1.88;;
18172;SDS011;9211;48.818;9.312;2022-09-01T15:00:24;2.15;;;1.75;;
18172;SDS011;9211;48.818;9.312;2022-09-01T15:02:52;2.08;;;1.83;;
18172;SDS011;9211;48.818;9.312;2022-09-01T15:05:20;3.65;;;1.90;;
18172;SDS011;9211;48.818;9.312;2022-09-01T15:07:48;3.13;;;2.00;;
18172;SDS011;9211;48.818;9.312;2022-09-01T15:10:16;2.60;;;2.07;;
18172;SDS011;9211;48.818;9.312;2022-09-01T15:12:45;2.50;;;2.05;;
18172;SDS011;9211;48.818;9.312;2022-09-01T15:15:15;3.88;;;2.10;;
18172;SDS011;9211;48.818;9.312;2022-09-01T15:17:42;11.67;;;7.67;;
18172;SDS011;9211;48.818;9.312;2022-09-01T15:20:09;8.57;;;5.97;;
18172;SDS011;9211;48.818;9.312;2022-09-01T15:22:53;3.00;;;2.30;;
18172;SDS011;9211;48.818;9.312;2022-09-01T15:25:20;2.95;;;1.98;;
18172;SDS011;9211;48.818;9.312;2022-09-01T15:27:48;2.90;;;2.08;;
18172;SDS011;9211;48.818;9.312;2022-09-01T15:30:16;2.28;;;2.00;;
18172;SDS011;9211;48.818;9.312;2022-09-01T15:32:46;2.55;;;2.15;;